Latest Coastal Weather Observations for Esperance

IDW60701

Issued at 10:42 pm WST Wednesday 2 September 2015 (issued every 10 minutes, with the page automatically refreshed every 10 minutes)

About coastal observations | Map of coastal stations | Coastal observations for WA | Marine services | Other Formats
Station Details ID: 009789 Name: ESPERANCE Lat: -33.83 Lon: 121.89 Height: 25.0 m
Data from the previous 72 hours. | See also: Recent months at Esperance
Date/Time
WST
Temp

°C
Wind Pressure Rain
since 9am
mm
Weather Cloud Vis
km
Sea
Height
m
Swell
Dir
 
Speed
knots
Gust
knots
hPa Trend Height
m
Period
s
Dir
02/10:30pm 7.8 WNW 4 5 1027.7 - 0.0 - Partly cloudy 10 - - - -
02/10:00pm 8.4 WNW 4 5 1027.9 - 0.0 - Partly cloudy 10 - - - -
02/09:30pm 9.0 SW 4 5 1027.9 - 0.0 - Partly cloudy 10 - - - -
02/09:00pm 9.0 NW 4 4 1028.1 R 0.0 - Cloudy 10 - - - -
02/08:30pm 9.3 N 4 5 1027.8 - 0.0 - Partly cloudy 10 - - - -
02/08:00pm 9.4 CALM 0 0 1027.6 - 0.0 - Partly cloudy 10 - - - -
02/07:30pm 9.6 N 4 5 1027.3 - 0.0 - Partly cloudy 10 - - - -
02/07:00pm 9.8 NNE 4 5 1027.0 - 0.0 - Partly cloudy 10 - - - -
02/06:30pm 11.2 SE 7 10 1026.8 - 0.0 - Partly cloudy 10 - - - -
02/06:00pm 11.0 SSE 7 10 1026.5 R 0.0 - Cloudy 10 - - - -
02/05:30pm 11.0 SSE 10 13 1026.1 - 0.0 - Partly cloudy 10 - - - -
02/05:00pm 11.6 SSE 7 10 1025.8 - 0.0 - Partly cloudy 10 - - - -
02/04:30pm 12.1 SSE 10 13 1025.6 - 0.0 - Partly cloudy 10 - - - -
02/04:00pm 12.2 SSE 10 13 1025.4 - 0.0 - Partly cloudy 10 - - - -
02/03:30pm 12.4 SSE 7 9 1025.3 - 0.0 - Partly cloudy 10 - - - -
02/03:00pm 11.8 SSE 7 10 1025.4 R 0.0 Fine Mostly cloudy 30 - - - -
02/02:30pm 10.9 S 10 14 1025.7 - 0.0 Showers Partly cloudy 7 - - - -
02/02:19pm 10.7 SSE 14 20 1025.6 - 0.0 Showers Partly cloudy 7 - - - -
02/02:00pm 13.4 S 9 14 1025.4 - 0.0 - Mostly clear 10 - - - -
02/01:30pm 12.5 SSE 6 9 1025.5 - 0.0 - Mostly clear 10 - - - -
02/01:00pm 12.7 SSE 12 15 1025.5 - 0.0 - Mostly clear 10 - - - -
02/12:30pm 13.7 SSE 10 14 1025.7 - 0.0 - Partly cloudy 10 - - - -
02/12:00pm 12.5 S 11 17 1025.9 R 0.0 Fine Mostly cloudy 30 - - - -
02/11:30am 13.2 S 10 16 1026.1 - 0.0 - Mostly clear 10 - - - -
02/11:00am 14.1 SSE 12 19 1026.3 - 0.0 - Mostly clear 10 - - - -
02/10:30am 12.8 SSE 11 16 1026.2 - 0.0 - Mostly clear 10 - - - -
02/10:00am 12.5 S 10 15 1026.3 - 0.0 - Mostly clear 10 - - - -
02/09:30am 13.3 S 8 13 1026.2 - 0.0 - Mostly clear 10 - - - -
02/09:00am 12.1 S 11 16 1025.9 R 2.2 Fine Mostly cloudy 25 - - - -
02/08:30am 12.1 S 12 17 1025.7 - 2.2 - Mostly clear 10 - - - -
02/08:00am 10.6 SSE 10 15 1025.6 - 2.2 - Partly cloudy 10 - - - -
02/07:30am 11.4 S 10 13 1024.9 - 2.2 - Mostly clear 10 - - - -
02/07:00am 10.0 S 9 12 1024.7 - 2.2 - Mostly clear 10 - - - -
02/06:30am 10.0 SW 4 8 1024.4 - 2.2 - Partly cloudy 10 - - - -
02/06:00am 9.7 SSE 7 11 1024.1 R 2.2 Distant precip. Mostly cloudy 20 - - - -
02/05:30am 10.2 S 9 14 1023.8 - 2.2 - Partly cloudy 10 - - - -
02/05:00am 10.7 S 9 13 1023.5 - 2.2 - Partly cloudy 10 - - - -
02/04:30am 10.7 SSW 9 15 1023.3 - 2.2 - Partly cloudy 10 - - - -
02/04:00am 10.2 SW 6 10 1023.0 - 2.2 - Partly cloudy 10 - - - -
02/03:30am 10.3 S 8 11 1022.7 - 2.2 - Partly cloudy 10 - - - -
02/03:00am 9.9 S 7 11 1022.9 R 2.2 Recent precip. Cloudy 10 - - - -
02/02:35am 9.2 SW 6 9 1022.9 - 2.2 - Partly cloudy 10 - - - -
02/02:30am 9.0 SW 8 13 1022.9 - 2.2 - Partly cloudy 10 - - - -
02/02:19am 9.0 SSW 12 20 1023.1 - 2.0 - Partly cloudy 7 - - - -
02/02:00am 10.4 SSW 7 11 1022.8 - 1.8 - Partly cloudy 10 - - - -
02/01:30am 10.3 S 8 10 1022.9 - 1.8 - Partly cloudy 10 - - - -
02/01:00am 10.4 SSW 9 13 1022.8 - 1.8 - Partly cloudy 10 - - - -
02/12:30am 10.3 SSW 7 13 1022.8 - 1.8 - Partly cloudy 10 - - - -
02/12:00am 10.1 SSW 7 10 1022.7 R 1.8 - Cloudy 10 - - - -
 
Date/Time
WST
Temp

°C
Wind Pressure Rain
since 9am
mm
Weather Cloud Vis
km
Sea
Height
m
Swell
Dir
 
Speed
knots
Gust
knots
hPa Trend Height
m
Period
s
Dir
01/11:30pm 10.2 SSW 14 20 1022.8 - 1.8 - Partly cloudy 10 - - - -
01/11:00pm 11.0 S 11 17 1022.6 - 1.8 - Partly cloudy 10 - - - -
01/10:30pm 10.3 S 8 11 1022.8 - 1.8 - Partly cloudy 10 - - - -
01/10:00pm 10.7 S 13 19 1022.7 - 1.8 - Partly cloudy 10 - - - -
01/09:30pm 10.1 SW 8 12 1022.7 - 1.8 - Partly cloudy 10 - - - -
01/09:00pm 10.6 SSW 10 23 1022.5 R 1.8 - Partly cloudy 10 - - - -
01/08:30pm 11.2 SSW 11 16 1022.2 - 1.8 - Partly cloudy 10 - - - -
01/08:00pm 10.9 S 13 21 1021.9 - 1.8 - Partly cloudy 10 - - - -
01/07:30pm 11.1 SSW 13 20 1021.3 - 1.8 - Partly cloudy 10 - - - -
01/07:00pm 10.8 SSW 11 19 1021.0 - 1.8 - Partly cloudy 10 - - - -
01/06:30pm 10.9 S 13 19 1020.5 - 1.8 - Partly cloudy 10 - - - -
01/06:00pm 10.9 SSW 13 19 1019.9 R 1.8 - Mostly cloudy 10 - - - -
01/05:37pm 11.1 SSW 15 23 1019.5 - 1.8 - Mostly clear 10 - - - -
01/05:30pm 11.1 S 13 21 1019.4 - 1.8 - Mostly clear 10 - - - -
01/05:00pm 11.1 SSW 16 23 1018.9 - 1.8 - Mostly clear 10 - - - -
01/04:39pm 11.0 SSW 15 25 1018.7 - 1.8 - Mostly clear 10 - - - -
01/04:30pm 10.2 SSW 12 24 1018.6 - 1.8 - Partly cloudy 10 - - - -
01/04:00pm 11.4 SSW 13 20 1018.2 - 1.6 - Partly cloudy 10 - - - -
01/03:30pm 12.0 S 17 28 1017.6 - 1.6 - Mostly clear 10 - - - -
01/03:00pm 12.0 SSW 18 27 1017.6 R 1.6 Distant precip. Partly cloudy 20 - - - -
01/02:37pm 12.1 S 15 26 1017.1 - 1.6 - Mostly clear 10 - - - -
01/02:30pm 11.8 SSW 14 20 1017.0 - 1.6 - Mostly clear 10 - - - -
01/02:00pm 11.1 SW 13 22 1016.9 - 1.6 - Mostly clear 10 - - - -
01/01:30pm 11.2 SSW 19 33 1016.2 - 1.6 Showers Partly cloudy 10 - - - -
01/01:00pm 12.7 SSW 18 27 1015.9 - 1.6 - Mostly clear 10 - - - -
01/12:30pm 11.1 S 17 27 1015.9 - 1.6 - Mostly clear 10 - - - -
01/12:00pm 11.3 S 18 29 1015.7 R 1.6 Distant precip. Mostly cloudy 20 - - - -
01/11:30am 11.5 SSW 17 28 1015.3 - 1.6 - Mostly clear 10 - - - -
01/11:01am 11.4 SSW 17 27 1015.2 - 1.6 - Mostly clear 10 - - - -
01/11:00am 11.5 SSW 16 25 1015.4 - 1.6 - Mostly clear 10 - - - -
01/10:30am 8.8 SSW 17 27 1015.1 - 1.6 Showers Mostly clear 10 - - - -
01/10:00am 8.8 S 21 35 1014.8 - 0.6 - Partly cloudy 8 - - - -
01/09:56am 9.9 S 21 35 1014.6 - 0.4 Showers Partly cloudy 8 - - - -
01/09:31am 9.8 S 15 25 1014.0 - 0.4 Showers Mostly clear 10 - - - -
01/09:30am 9.5 S 14 23 1014.1 - 0.4 Showers Mostly clear 10 - - - -
01/09:22am 8.8 SSW 14 22 1014.3 - 0.4 Showers Partly cloudy 10 - - - -
01/09:11am 8.5 SSW 20 33 1014.4 - 0.2 Showers Partly cloudy 7 - - - -
01/09:00am 9.6 SSW 20 32 1013.9 R 32.8 Showers Mostly cloudy 4 - - - -
01/08:30am 9.7 SSW 18 28 1013.4 - 32.8 - Mostly clear 10 - - - -
01/08:23am 9.2 SSW 15 28 1013.1 - 32.8 - Mostly clear 10 - - - -
01/08:16am 8.7 SSW 11 17 1013.3 - 32.8 Showers Mostly clear 10 - - - -
01/08:00am 7.7 SW 18 29 1013.2 - 32.6 - Mostly clear 5 - - - -
01/07:53am 8.0 SSW 18 29 1013.2 - 32.4 Showers Mostly clear 4 - - - -
01/07:42am 9.0 S 15 26 1012.7 - 31.8 - Mostly clear 10 - - - -
01/07:38am 8.9 S 14 26 1012.6 - 31.8 - Mostly clear 10 - - - -
01/07:30am 8.3 SSW 15 27 1012.6 - 31.8 Showers Mostly clear 8 - - - -
01/07:11am 8.5 SSW 15 27 1012.2 - 31.4 Showers Mostly clear 5 - - - -
01/07:00am 9.5 SW 12 21 1012.1 - 31.0 - Mostly clear 10 - - - -
01/06:30am 8.5 SSW 15 26 1011.7 - 31.0 - Partly cloudy 10 - - - -
01/06:00am 8.3 SSW 15 26 1011.5 R 31.0 Distant precip. Mostly cloudy 25 - - - -
01/05:58am 8.5 SSW 15 26 1011.4 - 31.0 - Partly cloudy 10 - - - -
01/05:33am 7.1 W 10 20 1010.5 - 30.2 - Partly cloudy 5 - - - -
01/05:30am 7.4 W 9 15 1010.7 - 28.8 - Partly cloudy 10 - - - -
01/05:00am 7.2 WNW 14 21 1010.5 - 28.8 - Partly cloudy 10 - - - -
01/04:30am 7.5 WSW 8 20 1010.1 - 28.4 - Partly cloudy 10 - - - -
01/04:14am 7.8 WNW 14 21 1010.3 - 28.4 - Partly cloudy 10 - - - -
01/04:00am 8.5 SSW 9 14 1009.9 - 28.2 - Partly cloudy 5 - - - -
01/03:49am 8.2 SW 7 12 1009.9 - 27.0 - Partly cloudy 7 - - - -
01/03:30am 8.3 WSW 12 21 1009.8 - 26.2 - Partly cloudy 10 - - - -
01/03:15am 7.8 SW 14 23 1009.9 - 26.2 - Partly cloudy 5 - - - -
01/03:00am 7.1 SW 8 15 1010.3 R 24.6 Rain Cloudy 2 - - - -
01/02:52am 7.1 WNW 12 17 1010.1 - 23.2 - Partly cloudy 6 - - - -
01/02:36am 7.0 WNW 12 19 1010.0 - 22.0 - Partly cloudy 5 - - - -
01/02:30am 7.0 WNW 14 21 1010.2 - 21.4 - Partly cloudy 3 - - - -
01/02:21am 7.3 WNW 12 20 1010.4 - 20.2 - Partly cloudy 5 - - - -
01/02:00am 7.4 WNW 10 15 1010.3 - 18.8 - Partly cloudy 10 - - - -
01/01:57am 7.4 WNW 10 15 1010.3 - 18.6 - Partly cloudy 10 - - - -
01/01:38am 7.6 WNW 19 27 1010.7 - 18.2 - Partly cloudy 2 - - - -
01/01:30am 7.7 NW 20 30 1010.1 - 16.8 - Partly cloudy 3 - - - -
01/01:23am 7.9 NW 15 27 1010.3 - 15.4 - Partly cloudy 10 - - - -
01/01:00am 8.0 WNW 15 23 1010.8 - 14.4 - Partly cloudy 5 - - - -
01/12:47am 7.7 W 16 23 1010.9 - 13.2 - Partly cloudy 3 - - - -
01/12:37am 8.2 WNW 15 22 1011.0 - 12.2 - Partly cloudy 3 - - - -
01/12:32am 8.4 WNW 14 22 1011.0 - 11.4 - Partly cloudy 5 - - - -
01/12:30am 8.5 WNW 13 21 1011.0 - 10.8 - Partly cloudy 10 - - - -
01/12:01am 8.5 SW 11 17 1010.5 - 10.4 - Partly cloudy 10 - - - -
01/12:00am 8.5 SW 10 17 1010.5 F 10.4 Recent precip. Cloudy 10 - - - -
 
Date/Time
WST
Temp

°C
Wind Pressure Rain
since 9am
mm
Weather Cloud Vis
km
Sea
Height
m
Swell
Dir
 
Speed
knots
Gust
knots
hPa Trend Height
m
Period
s
Dir
31/11:48pm 8.0 SSW 13 20 1010.6 - 10.2 - Partly cloudy 6 - - - -
31/11:31pm 8.0 W 22 42 1011.1 - 8.8 - Partly cloudy 2 - - - -
31/11:30pm 8.0 W 22 42 1011.0 - 8.6 - Partly cloudy 2 - - - -
31/11:26pm 8.2 W 21 42 1010.7 - 8.0 - Partly cloudy 2 - - - -
31/11:23pm 7.8 WNW 20 40 1010.9 - 7.6 - Partly cloudy 2 - - - -
31/11:21pm 7.7 WNW 19 40 1011.0 - 7.2 - Partly cloudy 3 - - - -
31/11:17pm 8.2 WNW 15 40 1010.5 - 6.0 - Partly cloudy 7 - - - -
31/11:16pm 8.5 WNW 13 35 1010.5 - 5.6 - Partly cloudy 10 - - - -
31/11:00pm 9.5 WSW 7 12 1010.5 - 5.6 - Partly cloudy 10 - - - -
31/10:49pm 9.0 W 8 14 1010.7 - 5.6 - Partly cloudy 10 - - - -
31/10:30pm 9.0 WNW 12 17 1011.0 - 5.6 - Partly cloudy 10 - - - -
31/10:25pm 9.2 WNW 12 17 1011.1 - 5.6 - Partly cloudy 10 - - - -
31/10:22pm 9.2 WNW 12 17 1011.0 - 5.6 - Partly cloudy 9 - - - -
31/10:00pm 9.4 WNW 13 19 1011.4 - 4.0 - Partly cloudy 5 - - - -
31/09:58pm 9.5 WNW 13 19 1011.3 - 3.4 - Partly cloudy 10 - - - -
31/09:42pm 9.6 WNW 13 22 1011.3 - 3.0 - Partly cloudy 7 - - - -
31/09:30pm 10.0 WNW 14 22 1011.4 - 2.8 - Partly cloudy 10 - - - -
31/09:00pm 10.1 NW 14 18 1011.4 S 2.8 - Mostly clear 10 - - - -
31/08:30pm 10.1 NW 13 20 1011.2 - 2.8 - Partly cloudy 10 - - - -
31/08:00pm 10.1 NW 14 19 1011.4 - 2.8 - Mostly clear 10 - - - -
31/07:52pm 10.1 NW 14 20 1011.4 - 2.8 Showers Partly cloudy 10 - - - -
31/07:30pm 10.3 WNW 16 23 1012.2 - 2.2 Showers Partly cloudy 5 - - - -
31/07:15pm 10.8 WNW 21 32 1012.3 - 0.8 Showers Partly cloudy 7 - - - -
31/07:00pm 12.3 WNW 18 31 1012.0 - 0.6 - Mostly clear 10 - - - -
31/06:41pm 13.2 NW 9 32 1011.5 - 0.6 - Partly cloudy 10 - - - -
31/06:30pm 13.0 NNW 4 6 1010.6 - 0.6 - Partly cloudy 10 - - - -
31/06:00pm 13.5 NW 5 7 1010.6 F 0.6 Fine Partly cloudy 30 - - - -
31/05:30pm 14.4 NW 6 8 1010.7 - 0.6 - Mostly clear 10 - - - -
31/05:00pm 16.2 NW 7 10 1010.8 - 0.6 - Mostly clear 10 - - - -
31/04:30pm 15.8 WNW 5 7 1010.8 - 0.6 - Mostly clear 10 - - - -
31/04:00pm 15.6 WNW 7 10 1011.1 - 0.6 - Mostly clear 10 - - - -
31/03:30pm 16.4 NNW 8 12 1011.0 - 0.6 - Mostly clear 10 - - - -
31/03:00pm 16.3 NNW 10 13 1011.5 F 0.6 Distant precip. Mostly cloudy 30 - - - -
31/02:30pm 16.0 NNW 10 13 1011.8 - 0.6 - Mostly clear 10 - - - -
31/02:00pm 15.5 NW 7 11 1012.4 - 0.6 - Mostly clear 10 - - - -
31/01:30pm 14.3 NW 13 20 1012.9 - 0.6 - Mostly clear 10 - - - -
31/01:00pm 17.1 NNW 11 16 1012.9 - 0.0 - Mostly clear 10 - - - -
31/12:30pm 17.7 NNW 15 19 1013.6 - 0.2 - Mostly clear 10 - - - -
31/12:00pm 17.6 N 13 19 1014.5 F 0.2 Fine Mostly cloudy 30 - - - -
31/11:30am 16.7 N 14 20 1015.2 - 0.2 - Partly cloudy 10 - - - -
31/11:00am 15.7 N 14 21 1016.1 - 0.2 - Cloudy 10 - - - -
31/10:30am 14.9 N 14 19 1016.7 - 0.2 - Cloudy 10 - - - -
31/10:00am 14.7 N 14 19 1017.2 - 0.0 - Partly cloudy 10 - - - -
31/09:30am 14.3 N 15 19 1017.6 - 0.0 - Partly cloudy 10 - - - -
31/09:00am 14.1 N 12 19 1018.2 F 0.0 Fine Mostly cloudy 30 - - - -
31/08:30am 12.6 N 12 17 1018.3 - 0.0 - Cloudy 10 - - - -
31/08:00am 11.9 N 10 14 1018.3 - 0.0 - Cloudy 10 - - - -
31/07:30am 10.9 N 9 15 1018.3 - 0.0 - Cloudy 10 - - - -
31/07:00am 10.3 NNE 5 7 1018.3 - 0.0 - Cloudy 10 - - - -
31/06:30am 10.0 NE 6 7 1018.1 - 0.0 - Cloudy 10 - - - -
31/06:00am 9.6 NNE 6 8 1018.2 F 0.0 Fine Mostly cloudy 25 - - - -
31/05:30am 9.4 N 9 12 1018.4 - 0.0 - Cloudy 10 - - - -
31/05:00am 9.5 NNE 8 10 1018.5 - 0.0 - Partly cloudy 10 - - - -
31/04:30am 9.8 NNE 7 15 1018.6 - 0.0 - Partly cloudy 10 - - - -
31/04:00am 10.4 NNE 7 9 1018.7 - 0.0 - Cloudy 10 - - - -
31/03:30am 10.6 NNE 7 8 1018.9 - 0.0 - Cloudy 10 - - - -
31/03:00am 10.4 N 7 9 1019.2 F 0.0 - Cloudy 10 - - - -
31/02:30am 10.2 N 3 11 1019.3 - 0.0 - Cloudy 10 - - - -
31/02:00am 9.8 WNW 3 5 1019.7 - 0.0 - Partly cloudy 10 - - - -
31/01:30am 9.9 NNW 4 5 1019.9 - 0.0 - Partly cloudy 10 - - - -
31/01:00am 9.5 NNE 5 7 1020.2 - 0.0 - Cloudy 10 - - - -
31/12:30am 9.3 N 5 7 1020.6 - 0.0 - Cloudy 10 - - - -
31/12:00am 9.9 S 4 7 1020.5 F 0.0 - Partly cloudy 10 - - - -
 
Date/Time
WST
Temp

°C
Wind Pressure Rain
since 9am
mm
Weather Cloud Vis
km
Sea
Height
m
Swell
Dir
 
Speed
knots
Gust
knots
hPa Trend Height
m
Period
s
Dir
30/11:30pm 9.6 N 5 6 1020.8 - 0.0 - Cloudy 10 - - - -
30/11:00pm 9.3 N 6 8 1020.9 - 0.0 - Partly cloudy 10 - - - -

Other Formats:

Comma delimited format used in spreadsheet applications
http://www.bom.gov.au/fwo/IDW60701/IDW60701.94638.axf

JavaScript Object Notation format (JSON) in row-major order
http://www.bom.gov.au/fwo/IDW60701/IDW60701.94638.json